Time;durP1;ratioP1;P1;durP2;ratioP2;P2;SDS_P1;SDS_P2;PMS_P1;PMS_P2;Temp;Humidity;BMP_temperature;BMP_pressure;BME280_temperature;BME280_humidity;BME280_pressure;Samples;Min_cycle;Max_cycle;Signal;HPM_P1;HPM_P2
2024/01/23 00:01:21;;;;;;;10.25;5.97;;;;;;;7.45;63.73;100120.84;6218575;22;96786;-78
2024/01/23 00:03:46;;;;;;;9.70;6.30;;;;;;;7.47;64.61;100124.25;6192305;22;101582;-77
2024/01/23 00:06:12;;;;;;;10.85;5.80;;;;;;;7.33;64.42;100106.31;6245453;22;97474;-77
2024/01/23 00:08:37;;;;;;;10.13;5.90;;;;;;;7.58;64.06;100135.28;6167398;22;96451;-76
2024/01/23 00:11:03;;;;;;;10.18;6.28;;;;;;;7.42;64.29;100118.31;6218863;22;96808;-76
2024/01/23 00:13:29;;;;;;;9.77;6.20;;;;;;;7.60;64.28;100149.19;6218071;22;97324;-77
2024/01/23 00:15:54;;;;;;;13.00;7.70;;;;;;;7.43;64.44;100130.44;6217968;22;97329;-76
2024/01/23 00:18:19;;;;;;;12.77;7.60;;;;;;;7.49;64.58;100125.94;6217745;22;96502;-76
2024/01/23 00:20:47;;;;;;;9.63;6.20;;;;;;;7.48;64.75;100144.28;6245755;22;96471;-76
2024/01/23 00:23:13;;;;;;;9.30;6.25;;;;;;;7.20;66.00;100144.03;6167059;22;101883;-76
2024/01/23 00:25:38;;;;;;;9.50;6.47;;;;;;;7.25;65.72;100152.63;6192181;22;101364;-76
2024/01/23 00:28:06;;;;;;;9.43;6.43;;;;;;;7.41;65.73;100155.75;6192847;22;96467;-76
2024/01/23 00:30:31;;;;;;;11.85;6.70;;;;;;;7.43;65.24;100146.13;6218705;22;96764;-78
2024/01/23 00:32:58;;;;;;;10.07;5.95;;;;;;;7.45;65.48;100158.25;6192360;22;99656;-77
2024/01/23 00:35:24;;;;;;;9.48;5.55;;;;;;;7.32;65.36;100119.41;6192370;22;101343;-76
2024/01/23 00:37:49;;;;;;;11.25;6.20;;;;;;;7.52;64.83;100148.50;6192744;22;96496;-76
2024/01/23 00:40:15;;;;;;;11.82;5.47;;;;;;;7.62;64.30;100144.78;6218066;22;96544;-77
2024/01/23 00:42:40;;;;;;;10.85;5.63;;;;;;;7.67;64.51;100144.66;6191401;22;100865;-76
2024/01/23 00:45:06;;;;;;;9.73;5.30;;;;;;;7.66;64.24;100135.13;6217611;22;97889;-77
2024/01/23 00:47:32;;;;;;;10.30;5.78;;;;;;;7.70;64.37;100141.97;6246109;22;96402;-77
2024/01/23 00:49:57;;;;;;;10.38;5.90;;;;;;;7.49;64.17;100102.41;6246721;22;96681;-77
2024/01/23 00:52:23;;;;;;;9.88;6.07;;;;;;;7.80;63.93;100150.47;6193186;22;101622;-76
2024/01/23 00:54:48;;;;;;;9.77;6.20;;;;;;;7.67;63.94;100134.22;6192568;22;97363;-76
2024/01/23 00:57:14;;;;;;;9.70;5.68;;;;;;;7.65;64.04;100129.03;6193795;22;96535;-77
2024/01/23 00:59:39;;;;;;;10.90;5.70;;;;;;;7.69;63.90;100142.88;6219744;22;96838;-76
2024/01/23 01:02:05;;;;;;;8.25;5.45;;;;;;;7.52;64.49;100148.50;6218797;22;98322;-76
2024/01/23 01:04:30;;;;;;;9.50;5.65;;;;;;;7.55;64.44;100153.66;6218641;22;101170;-76
2024/01/23 01:06:56;;;;;;;11.88;5.97;;;;;;;7.51;64.30;100153.78;6193102;22;96547;-76
2024/01/23 01:09:21;;;;;;;9.57;5.30;;;;;;;7.45;64.35;100170.47;6193511;22;96776;-79
2024/01/23 01:11:47;;;;;;;8.25;4.90;;;;;;;7.28;63.97;100149.97;6218673;22;97752;-77
2024/01/23 01:14:13;;;;;;;9.88;4.60;;;;;;;7.32;64.42;100155.97;6193253;22;101188;-77
2024/01/23 01:16:38;;;;;;;10.68;5.82;;;;;;;7.23;64.11;100147.44;6193408;22;96548;-76
2024/01/23 01:19:04;;;;;;;10.02;5.20;;;;;;;7.31;63.86;100149.88;6193756;22;96687;-76
2024/01/23 01:21:30;;;;;;;9.25;5.38;;;;;;;7.29;64.22;100163.88;6218893;22;97950;-76
2024/01/23 01:23:55;;;;;;;8.68;4.97;;;;;;;7.22;63.98;100148.34;6219286;22;97247;-76
2024/01/23 01:26:20;;;;;;;10.95;5.00;;;;;;;7.15;64.06;100143.28;6193794;22;96460;-77
2024/01/23 01:28:46;;;;;;;8.90;5.40;;;;;;;6.90;64.07;100115.13;6246664;22;96685;-76
2024/01/23 01:31:12;;;;;;;9.57;5.75;;;;;;;6.99;64.02;100146.25;6218036;22;101116;-78
2024/01/23 01:33:37;;;;;;;12.13;5.78;;;;;;;6.96;64.23;100150.69;6246263;22;97275;-78
2024/01/23 01:36:03;;;;;;;11.10;5.75;;;;;;;6.78;64.30;100150.19;6193620;22;96504;-77
2024/01/23 01:38:29;;;;;;;9.48;5.10;;;;;;;6.87;64.33;100158.72;6193516;22;96866;-76
2024/01/23 01:40:57;;;;;;;8.27;5.13;;;;;;;6.69;64.44;100147.78;6218660;22;100677;-77
2024/01/23 01:43:26;;;;;;;8.52;4.97;;;;;;;6.77;64.46;100158.03;6219194;22;97435;-76
2024/01/23 01:46:07;;;;;;;7.03;4.43;;;;;;;6.68;64.83;100147.78;6193074;22;96689;-77
2024/01/23 01:48:32;;;;;;;7.35;4.63;;;;;;;6.64;64.79;100147.00;6193582;22;96857;-77
2024/01/23 01:50:58;;;;;;;9.05;4.80;;;;;;;6.49;65.07;100150.78;6246070;22;97931;-77
2024/01/23 01:53:23;;;;;;;10.05;4.65;;;;;;;6.43;65.61;100153.53;6192935;22;101226;-76
2024/01/23 01:55:49;;;;;;;7.43;4.63;;;;;;;6.48;65.46;100158.63;6161170;22;96714;-77
2024/01/23 01:58:16;;;;;;;12.75;6.00;;;;;;;6.53;65.04;100162.00;6186571;22;96910;-76
2024/01/23 02:00:42;;;;;;;10.75;5.28;;;;;;;6.56;64.93;100172.38;6186484;22;97740;-77
2024/01/23 02:03:08;;;;;;;7.78;4.85;;;;;;;6.55;64.93;100171.53;6161094;22;100685;-76
2024/01/23 02:05:33;;;;;;;12.55;5.70;;;;;;;6.64;65.08;100180.06;6186570;22;96521;-77
2024/01/23 02:07:59;;;;;;;7.88;4.55;;;;;;;6.59;64.84;100172.31;6187033;22;96790;-76
2024/01/23 02:10:25;;;;;;;8.38;4.75;;;;;;;6.61;64.88;100185.34;6186244;22;100804;-76
2024/01/23 02:12:50;;;;;;;8.10;5.05;;;;;;;6.54;64.87;100180.25;6186511;22;100961;-77
2024/01/23 02:15:17;;;;;;;7.63;4.50;;;;;;;6.34;64.85;100138.03;6186555;22;96501;-76
2024/01/23 02:17:42;;;;;;;6.70;4.40;;;;;;;6.55;64.92;100187.16;6186996;22;96911;-77
2024/01/23 02:20:08;;;;;;;7.05;4.63;;;;;;;6.48;64.80;100176.88;6211273;22;97549;-76
2024/01/23 02:22:34;;;;;;;8.70;4.50;;;;;;;6.51;64.90;100189.84;6213211;22;97298;-76
2024/01/23 02:24:59;;;;;;;7.55;4.38;;;;;;;6.32;64.69;100153.72;6212071;22;96542;-77
2024/01/23 02:27:25;;;;;;;6.95;4.30;;;;;;;6.53;64.80;100177.66;6186718;22;96558;-76
2024/01/23 02:29:50;;;;;;;7.97;5.10;;;;;;;6.46;64.78;100161.28;6213221;22;97810;-77
2024/01/23 02:32:16;;;;;;;7.95;4.78;;;;;;;6.69;64.50;100181.69;6211688;22;97258;-76
2024/01/23 02:34:44;;;;;;;8.70;4.75;;;;;;;6.83;64.18;100196.19;6212064;22;96518;-76
2024/01/23 02:37:09;;;;;;;9.60;4.43;;;;;;;6.78;64.14;100191.94;6212595;22;96804;-76
2024/01/23 02:39:35;;;;;;;8.00;4.90;;;;;;;6.89;63.97;100183.00;6185959;22;101470;-77
2024/01/23 02:42:01;;;;;;;8.52;4.35;;;;;;;6.94;63.68;100181.16;6186056;22;100744;-76
2024/01/23 02:44:26;;;;;;;7.80;4.05;;;;;;;7.01;63.64;100180.13;6185869;22;96509;-76
2024/01/23 02:46:52;;;;;;;8.45;4.65;;;;;;;7.09;63.03;100183.44;6211745;22;96798;-76
2024/01/23 02:49:18;;;;;;;12.57;4.30;;;;;;;7.11;63.22;100191.25;6160625;22;101306;-77
2024/01/23 02:51:43;;;;;;;9.10;5.00;;;;;;;7.19;63.12;100191.94;6211548;22;97120;-77
2024/01/23 02:54:09;;;;;;;9.20;4.55;;;;;;;7.20;62.82;100180.59;6211958;22;96512;-76
2024/01/23 02:56:34;;;;;;;10.50;5.10;;;;;;;7.20;62.27;100180.59;6135160;22;1219762;-77
2024/01/23 02:59:00;;;;;;;7.55;4.45;;;;;;;7.18;62.66;100193.66;6187960;22;97591;-76
2024/01/23 03:01:25;;;;;;;7.07;4.47;;;;;;;7.07;62.75;100187.84;6213762;22;97442;-76
2024/01/23 03:03:51;;;;;;;9.68;5.15;;;;;;;6.79;62.87;100159.72;6213619;22;96683;-77
2024/01/23 03:06:16;;;;;;;8.00;5.15;;;;;;;7.06;62.52;100200.91;6213819;22;96794;-76
2024/01/23 03:08:41;;;;;;;12.25;5.32;;;;;;;7.12;62.46;100200.78;6214318;22;97408;-76
2024/01/23 03:11:07;;;;;;;9.35;4.97;;;;;;;7.05;62.51;100179.19;6212681;22;97287;-76
2024/01/23 03:13:32;;;;;;;8.70;4.88;;;;;;;7.15;61.89;100192.88;6213759;22;96489;-78
2024/01/23 03:15:58;;;;;;;10.10;5.15;;;;;;;7.06;62.52;100185.25;6213686;22;96697;-77
2024/01/23 03:18:23;;;;;;;9.30;5.32;;;;;;;7.17;62.10;100205.00;6187646;22;100941;-77
2024/01/23 03:20:49;;;;;;;8.50;5.13;;;;;;;7.25;62.03;100205.72;6213286;22;97295;-76
2024/01/23 03:23:14;;;;;;;10.77;6.00;;;;;;;7.08;62.18;100180.88;6215162;22;96413;-76
2024/01/23 03:25:40;;;;;;;9.02;5.50;;;;;;;7.12;62.69;100192.94;6213916;22;96779;-76
2024/01/23 03:28:05;;;;;;;9.90;4.80;;;;;;;7.06;62.83;100196.56;6187661;22;100845;-76
2024/01/23 03:30:31;;;;;;;7.63;4.38;;;;;;;7.06;63.05;100200.91;6213256;22;97949;-76
2024/01/23 03:32:57;;;;;;;7.65;4.93;;;;;;;7.15;63.06;100195.50;6187576;22;96498;-76
2024/01/23 03:35:24;;;;;;;7.85;5.05;;;;;;;7.13;62.66;100205.13;6213519;22;96763;-78
2024/01/23 03:37:49;;;;;;;6.97;4.55;;;;;;;7.12;62.93;100200.78;6213198;22;97366;-77
2024/01/23 03:40:15;;;;;;;7.40;4.95;;;;;;;7.10;63.25;100207.78;6213109;22;97268;-78
2024/01/23 03:42:41;;;;;;;9.88;5.40;;;;;;;7.06;63.33;100199.16;6213446;22;96500;-76
2024/01/23 03:45:07;;;;;;;7.03;4.40;;;;;;;7.19;63.38;100208.47;6213666;22;96724;-76
2024/01/23 03:47:32;;;;;;;9.25;4.45;;;;;;;7.01;63.41;100182.75;6212830;22;100853;-76
2024/01/23 03:49:57;;;;;;;7.97;4.07;;;;;;;7.10;63.50;100210.38;6188143;22;97404;-79
2024/01/23 03:52:23;;;;;;;7.78;4.30;;;;;;;6.99;63.60;100188.00;6213510;22;96471;-77
2024/01/23 03:54:49;;;;;;;11.35;5.00;;;;;;;7.19;63.41;100218.91;6187563;22;96719;-76
2024/01/23 03:57:15;;;;;;;6.75;4.28;;;;;;;6.96;63.62;100193.28;6187061;22;97382;-76
2024/01/23 03:59:44;;;;;;;10.00;4.60;;;;;;;6.97;63.39;100215.03;6213043;22;97304;-76
2024/01/23 04:02:09;;;;;;;8.00;4.10;;;;;;;7.06;63.73;100224.41;6162496;22;96484;-76
2024/01/23 04:04:36;;;;;;;7.20;4.50;;;;;;;7.09;63.91;100229.56;6215057;22;96679;-76
2024/01/23 04:07:02;;;;;;;9.88;5.93;;;;;;;7.02;63.66;100223.63;6187849;22;97874;-76
2024/01/23 04:09:28;;;;;;;9.38;4.82;;;;;;;7.19;63.21;100237.19;6212992;22;97487;-76
2024/01/23 04:11:54;;;;;;;11.10;4.82;;;;;;;7.19;63.47;100221.50;6187760;22;96490;-77
2024/01/23 04:14:20;;;;;;;7.75;4.47;;;;;;;7.15;63.12;100229.44;6188450;22;96462;-77
2024/01/23 04:16:46;;;;;;;9.50;5.88;;;;;;;7.06;63.82;100227.88;6187548;22;98007;-76
2024/01/23 04:19:12;;;;;;;9.63;5.03;;;;;;;6.85;63.86;100207.47;6212939;22;97137;-76
2024/01/23 04:21:37;;;;;;;8.52;5.30;;;;;;;6.98;63.80;100233.28;6187027;22;96584;-76
2024/01/23 04:24:03;;;;;;;11.23;5.10;;;;;;;7.03;63.95;100236.63;6213208;22;96810;-79
2024/01/23 04:26:28;;;;;;;8.10;4.53;;;;;;;7.02;64.02;100234.06;6212939;22;97212;-77
2024/01/23 04:28:54;;;;;;;9.70;5.20;;;;;;;6.81;64.00;100193.63;6187048;22;101389;-77
2024/01/23 04:31:20;;;;;;;8.52;5.10;;;;;;;7.01;63.43;100232.31;6187697;22;96513;-76
2024/01/23 04:33:46;;;;;;;10.10;4.68;;;;;;;6.99;63.85;100240.22;6187611;22;96825;-77
2024/01/23 04:36:12;;;;;;;11.45;5.05;;;;;;;6.96;63.94;100228.97;6187651;22;98032;-77
2024/01/23 04:38:38;;;;;;;10.15;4.63;;;;;;;6.94;63.63;100212.47;6187806;22;100525;-77
2024/01/23 04:41:04;;;;;;;6.82;4.28;;;;;;;6.95;63.88;100235.06;6214716;22;96433;-76
2024/01/23 04:43:29;;;;;;;17.38;5.00;;;;;;;7.02;63.37;100234.06;6212970;22;96836;-77
2024/01/23 04:45:55;;;;;;;12.02;4.82;;;;;;;7.02;63.51;100234.06;6213554;22;97229;-76
2024/01/23 04:48:20;;;;;;;10.60;4.65;;;;;;;7.10;63.17;100239.09;6212791;22;97486;-76
2024/01/23 04:50:46;;;;;;;8.93;4.50;;;;;;;6.91;63.52;100210.78;6213084;22;96516;-76
2024/01/23 04:53:11;;;;;;;8.88;4.80;;;;;;;7.10;63.29;100245.22;6213116;22;96794;-76
2024/01/23 04:55:37;;;;;;;12.18;5.05;;;;;;;6.86;63.07;100212.63;6186636;22;99496;-76
2024/01/23 04:58:03;;;;;;;12.45;4.57;;;;;;;6.99;63.20;100240.22;6212719;22;97213;-76
2024/01/23 05:00:28;;;;;;;9.45;4.32;;;;;;;6.92;63.20;100242.97;6187204;22;96573;-80
2024/01/23 05:02:54;;;;;;;10.30;4.68;;;;;;;7.02;63.03;100249.72;6162480;22;96891;-77
2024/01/23 05:05:19;;;;;;;7.93;4.53;;;;;;;6.99;63.12;100248.03;6186960;22;97275;-76
2024/01/23 05:07:45;;;;;;;12.50;4.97;;;;;;;7.11;62.78;100261.72;6212425;22;97308;-76
2024/01/23 05:10:10;;;;;;;9.10;5.50;;;;;;;7.08;62.77;100252.22;6212237;22;96462;-76
2024/01/23 05:12:36;;;;;;;9.07;4.13;;;;;;;7.00;62.95;100254.09;6214135;22;96862;-76
2024/01/23 05:15:03;;;;;;;6.60;4.25;;;;;;;6.92;62.63;100230.78;6186755;22;100840;-76
2024/01/23 05:17:29;;;;;;;10.13;4.20;;;;;;;7.06;62.49;100259.19;6187108;22;101310;-77
2024/01/23 05:19:57;;;;;;;5.82;3.97;;;;;;;6.93;62.40;100255.13;6212793;22;96526;-76
2024/01/23 05:22:22;;;;;;;9.52;3.63;;;;;;;6.94;62.48;100262.91;6186926;22;96792;-76
2024/01/23 05:24:48;;;;;;;12.13;5.53;;;;;;;6.99;62.82;100253.25;6212207;22;97482;-77
2024/01/23 05:27:13;;;;;;;7.82;3.67;;;;;;;6.96;62.39;100247.25;6187021;22;101017;-79
2024/01/23 05:29:39;;;;;;;11.95;3.85;;;;;;;7.08;62.43;100270.47;6186896;22;96598;-77
2024/01/23 05:32:04;;;;;;;5.82;3.50;;;;;;;7.01;62.36;100256.69;6187129;22;96417;-76
2024/01/23 05:34:30;;;;;;;10.18;3.83;;;;;;;6.96;62.10;100242.88;6212631;22;101145;-77
2024/01/23 05:36:57;;;;;;;12.32;3.95;;;;;;;7.15;61.57;100272.06;6215292;22;97252;-77
2024/01/23 05:39:22;;;;;;;9.93;3.78;;;;;;;7.09;61.71;100261.75;6213996;22;96546;-76
2024/01/23 05:41:48;;;;;;;11.48;4.07;;;;;;;7.23;61.44;100277.97;6188752;22;96768;-76
2024/01/23 05:44:13;;;;;;;8.35;3.75;;;;;;;7.02;61.59;100263.63;6213314;22;100819;-77
2024/01/23 05:46:39;;;;;;;12.40;4.32;;;;;;;7.12;61.83;100271.25;6187943;22;97379;-78
2024/01/23 05:49:04;;;;;;;11.98;3.45;;;;;;;7.17;61.89;100285.94;6163058;22;96489;-77
2024/01/23 05:51:30;;;;;;;8.52;4.20;;;;;;;7.02;61.66;100273.22;6214349;22;96838;-77
2024/01/23 05:53:55;;;;;;;9.20;3.75;;;;;;;7.17;62.13;100287.69;6162638;22;101256;-77
2024/01/23 05:56:21;;;;;;;7.47;3.42;;;;;;;7.06;62.08;100261.81;6162401;22;101073;-76
2024/01/23 05:58:46;;;;;;;11.07;4.32;;;;;;;7.15;62.04;100282.50;6213338;22;96512;-76
2024/01/23 06:01:12;;;;;;;11.32;3.85;;;;;;;7.26;61.71;100284.91;6215447;22;96724;-76
2024/01/23 06:03:39;;;;;;;9.70;3.70;;;;;;;7.15;61.70;100264.22;6214882;22;98091;-76
2024/01/23 06:06:04;;;;;;;12.40;4.43;;;;;;;7.27;61.49;100281.38;6213611;22;97960;-79
2024/01/23 06:08:30;;;;;;;10.10;3.90;;;;;;;7.13;61.51;100262.56;6213738;22;96526;-77
2024/01/23 06:10:55;;;;;;;9.30;3.45;;;;;;;7.09;61.82;100266.13;6188353;22;96755;-76
2024/01/23 06:13:20;;;;;;;9.75;3.95;;;;;;;7.29;61.74;100289.19;6215153;22;97470;-76
2024/01/23 06:15:46;;;;;;;13.10;4.22;;;;;;;7.38;61.57;100295.06;6213968;22;97547;-76
2024/01/23 06:18:12;;;;;;;10.68;3.75;;;;;;;7.38;61.79;100297.69;6215448;22;96439;-76
2024/01/23 06:20:37;;;;;;;10.10;3.30;;;;;;;7.30;61.61;100277.84;6188347;22;96749;-76
2024/01/23 06:23:03;;;;;;;10.20;3.50;;;;;;;7.41;61.30;100305.47;6187223;22;101376;-76
2024/01/23 06:25:29;;;;;;;12.38;4.05;;;;;;;7.35;61.39;100295.16;6188088;22;97376;-76
2024/01/23 06:27:55;;;;;;;11.00;3.72;;;;;;;7.53;61.29;100319.16;6213787;22;96495;-76
2024/01/23 06:30:20;;;;;;;8.45;3.42;;;;;;;7.35;61.09;100292.53;6188471;22;96795;-76
2024/01/23 06:32:46;;;;;;;9.88;4.32;;;;;;;7.48;60.98;100329.72;6162439;22;99004;-76
2024/01/23 06:35:11;;;;;;;11.00;5.45;;;;;;;7.64;60.99;100351.13;6214263;22;97429;-76
2024/01/23 06:37:37;;;;;;;9.68;5.30;;;;;;;7.63;61.05;100346.81;6213788;22;96544;-76
2024/01/23 06:40:03;;;;;;;14.85;5.65;;;;;;;7.62;60.72;100353.78;6188701;22;96736;-76
2024/01/23 06:42:28;;;;;;;10.50;5.00;;;;;;;7.49;60.37;100332.28;6187545;22;100850;-76
2024/01/23 06:44:54;;;;;;;15.80;5.55;;;;;;;7.59;60.45;100359.09;6212639;22;97430;-77
2024/01/23 06:47:19;;;;;;;10.68;4.70;;;;;;;7.49;60.55;100363.63;6187431;22;96577;-77
2024/01/23 06:49:45;;;;;;;9.65;4.78;;;;;;;7.57;60.61;100362.63;6213561;22;96766;-76
2024/01/23 06:52:10;;;;;;;13.90;5.47;;;;;;;7.60;60.78;100371.25;6213263;22;97918;-77
2024/01/23 06:54:36;;;;;;;12.68;5.20;;;;;;;7.57;60.44;100370.47;6191435;22;96984;-76
2024/01/23 06:57:01;;;;;;;12.10;5.05;;;;;;;7.51;60.76;100376.66;6193384;22;96513;-76
2024/01/23 06:59:27;;;;;;;16.30;5.35;;;;;;;7.54;60.60;100376.59;6218792;22;96691;-76
2024/01/23 07:01:53;;;;;;;18.77;5.43;;;;;;;7.42;60.71;100369.03;6192646;22;99224;-76
2024/01/23 07:04:18;;;;;;;14.80;4.78;;;;;;;7.43;61.07;100387.25;6218664;22;97368;-76
2024/01/23 07:06:44;;;;;;;13.52;5.00;;;;;;;7.42;61.23;100389.91;6245997;22;96382;-76
2024/01/23 07:09:10;;;;;;;11.63;5.07;;;;;;;7.34;61.47;100400.50;6218471;22;96833;-76
2024/01/23 07:11:39;;;;;;;14.80;4.68;;;;;;;7.40;61.20;100410.81;6191856;22;101188;-76
2024/01/23 07:14:04;;;;;;;14.00;5.28;;;;;;;7.33;61.30;100413.56;6192416;22;101512;-77
2024/01/23 07:16:30;;;;;;;10.00;4.60;;;;;;;7.19;61.76;100426.91;6218424;22;96537;-76
2024/01/23 07:18:55;;;;;;;13.23;4.90;;;;;;;7.30;61.58;100439.75;6218808;22;96793;-76
2024/01/23 07:21:21;;;;;;;11.57;4.50;;;;;;;7.19;62.25;100437.34;6218149;22;97665;-76
2024/01/23 07:23:47;;;;;;;12.90;5.10;;;;;;;7.38;62.55;100464.84;6218102;22;97325;-76
2024/01/23 07:26:12;;;;;;;12.35;5.60;;;;;;;7.47;62.72;100467.28;6193121;22;96505;-76
2024/01/23 07:28:39;;;;;;;15.27;6.07;;;;;;;7.56;62.65;100481.03;6219139;22;96672;-76
2024/01/23 07:31:04;;;;;;;17.00;6.03;;;;;;;7.28;63.11;100462.44;6192271;22;101323;-78
2024/01/23 07:33:30;;;;;;;12.70;5.03;;;;;;;7.59;63.02;100501.88;6218208;22;97455;-77
2024/01/23 07:35:55;;;;;;;14.48;4.38;;;;;;;7.59;63.17;100494.94;6167187;22;96452;-76
2024/01/23 07:38:21;;;;;;;15.05;5.20;;;;;;;7.45;63.66;100476.03;6192853;22;96786;-76
2024/01/23 07:40:46;;;;;;;15.85;4.63;;;;;;;7.52;63.47;100503.75;6218242;22;97940;-76
2024/01/23 07:43:12;;;;;;;10.73;4.50;;;;;;;7.60;63.68;100498.41;6192435;22;100948;-76
2024/01/23 07:45:37;;;;;;;12.77;4.97;;;;;;;7.75;63.33;100505.94;6218552;22;96545;-76
2024/01/23 07:48:04;;;;;;;13.10;4.45;;;;;;;7.74;63.38;100490.28;6218475;22;96862;-77
2024/01/23 07:50:29;;;;;;;12.55;5.47;;;;;;;7.68;63.39;100491.28;6192317;22;101310;-77
2024/01/23 07:52:55;;;;;;;17.80;6.10;;;;;;;7.78;63.65;100505.88;6245811;22;97291;-77
2024/01/23 07:55:22;;;;;;;16.67;5.65;;;;;;;7.77;63.64;100498.94;6217638;22;96618;-76
2024/01/23 07:57:48;;;;;;;14.43;4.07;;;;;;;7.85;63.35;100509.22;6193112;22;96760;-76
2024/01/23 08:00:18;;;;;;;11.63;4.35;;;;;;;8.24;62.97;100507.56;6191883;22;97877;-77
2024/01/23 08:02:44;;;;;;;13.15;4.45;;;;;;;8.42;62.39;100508.94;6167304;22;101189;-77
2024/01/23 08:05:09;;;;;;;13.40;3.45;;;;;;;8.86;61.54;100514.06;6167534;22;96528;-77
2024/01/23 08:07:35;;;;;;;10.52;3.25;;;;;;;8.75;61.30;100514.28;6192702;22;96799;-77
2024/01/23 08:10:00;;;;;;;10.48;3.60;;;;;;;8.76;61.39;100519.50;6167059;22;101159;-77
2024/01/23 08:12:26;;;;;;;9.48;3.65;;;;;;;8.90;61.08;100523.53;6217944;22;100897;-77
2024/01/23 08:14:51;;;;;;;12.88;3.90;;;;;;;8.93;60.67;100523.47;6218555;22;96555;-77
2024/01/23 08:17:18;;;;;;;9.02;3.72;;;;;;;8.78;60.88;100522.94;6167742;22;96840;-77
2024/01/23 08:19:43;;;;;;;13.68;4.65;;;;;;;9.02;60.17;100516.25;6218121;22;97292;-76
2024/01/23 08:22:09;;;;;;;9.77;3.80;;;;;;;9.21;60.12;100516.66;6217877;22;97365;-77
2024/01/23 08:24:35;;;;;;;7.22;3.20;;;;;;;9.47;58.94;100521.22;6166642;22;96513;-79
2024/01/23 08:27:00;;;;;;;13.68;3.83;;;;;;;9.61;59.05;100536.59;6192631;22;96767;-77
2024/01/23 08:29:26;;;;;;;7.50;2.75;;;;;;;10.24;57.40;100536.59;6217735;22;98244;-77
2024/01/23 08:31:51;;;;;;;8.10;2.72;;;;;;;10.81;56.13;100527.88;6192109;22;101224;-77
2024/01/23 08:34:17;;;;;;;6.90;2.97;;;;;;;11.02;54.65;100516.69;6192587;22;96625;-77
2024/01/23 08:36:42;;;;;;;6.55;2.90;;;;;;;11.29;54.19;100533.31;6245440;22;96767;-77
2024/01/23 08:39:08;;;;;;;6.70;2.50;;;;;;;11.27;53.48;100521.13;6192354;22;98060;-77
2024/01/23 08:41:34;;;;;;;7.00;2.67;;;;;;;11.48;53.02;100541.44;6245556;22;97812;-75
2024/01/23 08:43:59;;;;;;;11.02;3.08;;;;;;;11.28;52.92;100533.34;6218045;22;96677;-74
2024/01/23 08:46:25;;;;;;;9.35;2.30;;;;;;;11.52;52.57;100544.84;6218373;22;96823;-77
2024/01/23 08:48:50;;;;;;;5.93;2.70;;;;;;;11.61;52.04;100557.66;6191140;22;101026;-75
2024/01/23 08:51:16;;;;;;;6.32;2.10;;;;;;;11.62;52.51;100559.38;6245076;22;97361;-74
2024/01/23 08:53:41;;;;;;;5.07;2.17;;;;;;;10.99;53.25;100564.06;6218145;22;96585;-75
2024/01/23 08:56:07;;;;;;;4.40;2.00;;;;;;;10.44;54.32;100565.75;6212320;22;96763;-75
2024/01/23 08:58:33;;;;;;;7.28;2.40;;;;;;;10.07;54.82;100566.81;6187000;22;97551;-74
2024/01/23 09:00:59;;;;;;;5.72;1.60;;;;;;;9.80;55.36;100580.66;6186716;22;100956;-75
2024/01/23 09:03:24;;;;;;;5.40;2.60;;;;;;;9.56;55.32;100576.91;6214161;22;96429;-77
2024/01/23 09:05:50;;;;;;;8.50;2.25;;;;;;;9.58;56.52;100603.97;6187695;22;96988;-79
2024/01/23 09:08:16;;;;;;;4.25;2.05;;;;;;;9.39;56.24;100611.41;6212933;22;97364;-77
2024/01/23 09:10:42;;;;;;;9.00;2.67;;;;;;;9.32;56.54;100615.94;6213814;22;97326;-77
2024/01/23 09:13:07;;;;;;;8.45;2.92;;;;;;;9.20;56.79;100590.91;6188085;22;96497;-74
2024/01/23 09:15:33;;;;;;;12.95;4.18;;;;;;;9.71;59.67;100618.47;6214045;22;96823;-75
2024/01/23 09:17:59;;;;;;;8.25;3.63;;;;;;;9.66;56.33;100623.84;6188074;22;101296;-76
2024/01/23 09:20:24;;;;;;;6.93;3.15;;;;;;;9.77;55.58;100634.03;6213721;22;97833;-77
2024/01/23 09:22:51;;;;;;;12.23;3.10;;;;;;;10.18;54.58;100632.94;6188339;22;96504;-76
2024/01/23 09:25:24;;;;;;;8.75;3.35;;;;;;;9.85;54.74;100611.09;6188799;22;96841;-75
2024/01/23 09:27:50;;;;;;;11.52;5.30;;;;;;;9.82;54.94;100634.78;6213600;22;97530;-78
2024/01/23 09:30:16;;;;;;;18.27;8.30;;;;;;;9.47;54.98;100620.81;6188384;22;100893;-78
2024/01/23 09:32:41;;;;;;;21.58;11.82;;;;;;;9.52;55.90;100642.53;6188264;22;96721;-78
2024/01/23 09:35:07;;;;;;;21.17;10.63;;;;;;;9.57;55.46;100624.06;6163094;22;96830;-80
2024/01/23 09:37:33;;;;;;;18.23;10.30;;;;;;;9.49;55.88;100629.50;6187089;22;101137;-78
2024/01/23 09:39:58;;;;;;;14.10;6.97;;;;;;;9.35;55.44;100621.09;6187968;22;101268;-78
2024/01/23 09:42:24;;;;;;;13.90;5.35;;;;;;;9.27;56.30;100630.91;6188409;22;96538;-76
2024/01/23 09:44:53;;;;;;;11.82;4.70;;;;;;;9.16;56.09;100618.06;6215421;22;96737;-78
2024/01/23 09:47:20;;;;;;;8.65;3.40;;;;;;;9.33;56.43;100622.91;6187147;22;101377;-79
2024/01/23 09:49:46;;;;;;;8.07;3.38;;;;;;;9.39;55.78;100632.38;6212993;22;97297;-78
2024/01/23 09:52:12;;;;;;;11.90;2.67;;;;;;;9.58;55.85;100627.56;6213169;22;96715;-77
2024/01/23 09:54:38;;;;;;;8.65;3.03;;;;;;;9.74;55.46;100629.75;6217830;22;96802;-78
2024/01/23 09:57:04;;;;;;;6.28;2.22;;;;;;;10.14;54.38;100633.91;6245791;22;97876;-77
2024/01/23 09:59:29;;;;;;;11.23;3.13;;;;;;;10.24;53.84;100608.31;6192569;22;97240;-77
2024/01/23 10:01:56;;;;;;;11.15;3.40;;;;;;;10.58;53.70;100625.72;6167029;22;96406;-77
2024/01/23 10:04:21;;;;;;;9.18;3.00;;;;;;;10.42;53.19;100593.84;6192526;22;96727;-76
2024/01/23 10:06:47;;;;;;;9.48;3.00;;;;;;;10.41;53.04;100618.34;6218033;22;97288;-76
2024/01/23 10:09:13;;;;;;;6.57;2.80;;;;;;;10.29;53.00;100610.81;6218279;22;97541;-78
2024/01/23 10:11:38;;;;;;;7.90;2.67;;;;;;;10.29;53.27;100637.91;6245442;22;96436;-77
2024/01/23 10:14:06;;;;;;;10.30;3.17;;;;;;;10.18;53.19;100634.69;6192405;22;96812;-75
2024/01/23 10:16:31;;;;;;;11.57;3.38;;;;;;;10.40;52.84;100642.88;6192682;22;97555;-76
2024/01/23 10:18:57;;;;;;;12.90;3.55;;;;;;;10.66;52.44;100639.50;6167959;22;100738;-76
2024/01/23 10:21:23;;;;;;;8.63;3.20;;;;;;;10.85;52.27;100643.31;6192925;22;96474;-76
2024/01/23 10:23:52;;;;;;;9.27;3.22;;;;;;;10.80;51.34;100644.34;6192998;22;96915;-75
2024/01/23 10:26:20;;;;;;;12.43;3.00;;;;;;;10.58;51.51;100655.47;6191831;22;100871;-75
2024/01/23 10:28:49;;;;;;;7.55;2.67;;;;;;;10.62;51.65;100659.75;6218604;22;97352;-75
2024/01/23 10:31:16;;;;;;;9.68;2.80;;;;;;;10.34;51.94;100664.91;6192439;22;96568;-76
2024/01/23 10:33:42;;;;;;;11.38;3.35;;;;;;;10.24;52.48;100659.91;6192833;22;96891;-73
2024/01/23 10:36:08;;;;;;;8.38;2.83;;;;;;;10.17;52.47;100654.81;6192420;22;101351;-73
2024/01/23 10:38:37;;;;;;;10.80;2.85;;;;;;;9.87;52.81;100661.75;6192633;22;100829;-74
2024/01/23 10:41:04;;;;;;;10.65;2.72;;;;;;;9.98;52.46;100678.06;6193589;22;96585;-73
2024/01/23 10:43:31;;;;;;;11.48;2.70;;;;;;;9.85;52.94;100658.28;6218923;22;96467;-74
2024/01/23 10:46:03;;;;;;;11.32;3.08;;;;;;;9.85;53.01;100679.28;6167279;22;101385;-74
2024/01/23 10:48:32;;;;;;;5.53;2.20;;;;;;;9.80;53.52;100689.00;6218614;22;98029;-73
2024/01/23 10:51:19;;;;;;;10.82;2.47;;;;;;;9.66;53.53;100692.00;6217804;22;96513;-73
2024/01/23 10:53:57;;;;;;;9.25;2.67;;;;;;;9.59;53.46;100693.00;6192915;22;96553;-74
2024/01/23 10:56:24;;;;;;;8.10;2.83;;;;;;;9.45;53.86;100690.75;6218666;22;97502;-73
2024/01/23 10:59:00;;;;;;;10.48;3.08;;;;;;;9.36;53.84;100683.06;6192613;22;101276;-73
2024/01/23 11:01:33;;;;;;;8.00;2.60;;;;;;;9.35;54.38;100691.84;6218234;22;96641;-76
2024/01/23 11:04:02;;;;;;;7.45;2.15;;;;;;;9.44;54.43;100694.25;6219016;22;96530;-74
2024/01/23 11:06:31;;;;;;;9.63;2.67;;;;;;;9.35;54.55;100684.00;6192401;22;97569;-74
2024/01/23 11:09:04;;;;;;;7.70;2.38;;;;;;;9.19;54.25;100657.28;6218568;22;97921;-74
2024/01/23 11:11:43;;;;;;;11.35;2.70;;;;;;;9.43;54.56;100681.19;6218687;22;96525;-74
2024/01/23 11:14:25;;;;;;;7.18;2.28;;;;;;;9.40;54.46;100681.28;6167749;22;96869;-73
2024/01/23 11:17:08;;;;;;;7.32;2.58;;;;;;;9.29;54.90;100698.09;6217563;22;98458;-74
2024/01/23 11:19:41;;;;;;;7.25;2.33;;;;;;;9.32;55.21;100699.78;6192630;22;97563;-73
2024/01/23 11:22:07;;;;;;;10.02;3.08;;;;;;;9.32;54.77;100672.72;6246015;22;96791;-74